createdAt,value
2018-02-22T00:00:31.687Z,0
2018-02-22T00:01:36.591Z,0
2018-02-22T00:02:41.508Z,0
2018-02-22T00:03:47.376Z,0
2018-02-22T00:04:52.587Z,0
2018-02-22T00:05:57.787Z,0
2018-02-22T00:07:03.343Z,0
2018-02-22T00:08:08.579Z,0
2018-02-22T00:09:14.053Z,0
2018-02-22T00:10:19.805Z,0
2018-02-22T00:11:25.046Z,0
2018-02-22T00:12:30.490Z,0
2018-02-22T00:13:35.966Z,0
2018-02-22T00:14:41.486Z,0
2018-02-22T00:15:47.364Z,0
2018-02-22T00:16:52.597Z,0
2018-02-22T00:17:58.065Z,0
2018-02-22T00:19:03.745Z,0
2018-02-22T00:20:08.952Z,0
2018-02-22T00:21:14.423Z,0
2018-02-22T00:22:20.273Z,0
2018-02-22T00:23:25.781Z,0
2018-02-22T00:24:31.518Z,0
2018-02-22T00:25:36.756Z,0
2018-02-22T00:26:41.928Z,0
2018-02-22T00:27:47.799Z,0
2018-02-22T00:28:52.971Z,0
2018-02-22T00:29:58.157Z,0
2018-02-22T00:31:03.609Z,0
2018-02-22T00:32:08.838Z,0
2018-02-22T00:33:13.753Z,0
2018-02-22T00:34:19.582Z,0
2018-02-22T00:35:25.077Z,0
2018-02-22T00:36:30.267Z,0
2018-02-22T00:37:35.765Z,0
2018-02-22T00:38:41.245Z,0
2018-02-22T00:39:47.358Z,0
2018-02-22T00:40:52.918Z,0
2018-02-22T00:41:58.403Z,0
2018-02-22T00:43:04.163Z,0
2018-02-22T00:44:09.336Z,0
2018-02-22T00:45:13.982Z,0
2018-02-22T00:46:19.736Z,0
2018-02-22T00:47:25.227Z,0
2018-02-22T00:48:31.113Z,0
2018-02-22T00:49:36.582Z,0
2018-02-22T00:50:41.499Z,0
2018-02-22T00:51:46.991Z,0
2018-02-22T00:52:52.504Z,0
2018-02-22T00:53:58.038Z,0
2018-02-22T00:55:03.503Z,0
2018-02-22T00:56:09.017Z,0
2018-02-22T00:57:14.187Z,0
2018-02-22T00:58:19.901Z,0
2018-02-22T00:59:25.082Z,0
2018-02-22T01:00:31.003Z,0
2018-02-22T01:01:36.493Z,0
2018-02-22T01:02:41.688Z,0
2018-02-22T01:03:47.465Z,0
2018-02-22T01:04:52.971Z,0
2018-02-22T01:05:58.441Z,0
2018-02-22T01:07:04.289Z,0
2018-02-22T01:08:09.548Z,0
2018-02-22T01:09:14.766Z,0
2018-02-22T01:10:20.384Z,0
2018-02-22T01:11:25.625Z,0
2018-02-22T01:12:31.636Z,0
2018-02-22T01:13:37.136Z,0
2018-02-22T01:14:42.629Z,0
2018-02-22T01:15:48.200Z,0
2018-02-22T01:16:53.422Z,0
2018-02-22T01:17:58.590Z,0
2018-02-22T01:19:04.296Z,0
2018-02-22T01:20:09.768Z,0
2018-02-22T01:21:14.951Z,0
2018-02-22T01:22:20.738Z,0
2018-02-22T01:23:25.639Z,0
2018-02-22T01:24:31.143Z,0
2018-02-22T01:25:36.613Z,0
2018-02-22T01:26:42.125Z,0
2018-02-22T01:27:47.994Z,0
2018-02-22T01:28:53.465Z,0
2018-02-22T01:29:58.987Z,0
2018-02-22T01:31:04.716Z,0
2018-02-22T01:32:10.189Z,0
2018-02-22T01:33:15.721Z,0
2018-02-22T01:34:21.501Z,0
2018-02-22T01:35:26.681Z,0
2018-02-22T01:36:32.637Z,0
2018-02-22T01:37:38.128Z,0
2018-02-22T01:38:43.036Z,0
2018-02-22T01:39:48.720Z,0
2018-02-22T01:40:54.171Z,0
2018-02-22T01:41:59.628Z,0
2018-02-22T01:43:05.121Z,0
2018-02-22T01:44:10.594Z,0
2018-02-22T01:45:16.068Z,0
2018-02-22T01:46:21.860Z,0
2018-02-22T01:47:26.795Z,0
2018-02-22T01:48:32.802Z,0
2018-02-22T01:49:37.995Z,0
2018-02-22T01:50:43.480Z,0
2018-02-22T01:51:49.243Z,0
2018-02-22T01:52:54.714Z,0
2018-02-22T01:54:00.164Z,0
2018-02-22T01:55:05.577Z,0
2018-02-22T01:56:11.066Z,0
2018-02-22T01:57:16.578Z,0
2018-02-22T01:58:22.336Z,0
2018-02-22T01:59:27.532Z,0
2018-02-22T02:00:33.066Z,0
2018-02-22T02:01:38.268Z,0
2018-02-22T02:02:43.192Z,0
2018-02-22T02:03:48.382Z,0
2018-02-22T02:04:53.881Z,0
2018-02-22T02:05:59.343Z,0
2018-02-22T02:07:04.777Z,0
2018-02-22T02:08:10.016Z,0
2018-02-22T02:09:15.522Z,0
2018-02-22T02:10:21.254Z,0
2018-02-22T02:11:26.500Z,0
2018-02-22T02:12:32.414Z,0
2018-02-22T02:13:37.057Z,0
2018-02-22T02:14:42.306Z,0
2018-02-22T02:15:47.777Z,0
2018-02-22T02:16:53.264Z,0
2018-02-22T02:17:58.193Z,0
2018-02-22T02:19:03.916Z,0
2018-02-22T02:20:09.409Z,0
2018-02-22T02:21:14.868Z,0
2018-02-22T02:22:20.503Z,0
2018-02-22T02:23:25.714Z,0
2018-02-22T02:24:31.479Z,0
2018-02-22T02:25:36.127Z,0
2018-02-22T02:26:41.068Z,0
2018-02-22T02:27:46.943Z,0
2018-02-22T02:28:52.461Z,0
2018-02-22T02:29:57.986Z,0
2018-02-22T02:31:03.687Z,0
2018-02-22T02:32:08.885Z,0
2018-02-22T02:33:14.403Z,0
2018-02-22T02:34:20.185Z,0
2018-02-22T02:35:25.721Z,0
2018-02-22T02:36:31.213Z,0
2018-02-22T02:37:36.417Z,0
2018-02-22T02:38:41.328Z,0
2018-02-22T02:39:47.186Z,0
2018-02-22T02:40:52.414Z,0
2018-02-22T02:41:57.626Z,0
2018-02-22T02:43:03.441Z,0
2018-02-22T02:44:08.646Z,0
2018-02-22T02:45:14.124Z,0
2018-02-22T02:46:20.070Z,0
2018-02-22T02:47:25.584Z,0
2018-02-22T02:48:30.822Z,0
2018-02-22T02:49:36.340Z,0
2018-02-22T02:50:40.979Z,0
2018-02-22T02:51:46.703Z,0
2018-02-22T02:52:52.202Z,0
2018-02-22T02:53:57.714Z,0
2018-02-22T02:55:02.675Z,0
2018-02-22T02:56:07.872Z,0
2018-02-22T02:57:13.375Z,0
2018-02-22T02:58:19.213Z,0
2018-02-22T02:59:24.419Z,0
2018-02-22T03:00:29.833Z,0
2018-02-22T03:01:34.742Z,0
2018-02-22T03:02:40.242Z,0
2018-02-22T03:03:46.210Z,0
2018-02-22T03:04:51.691Z,0
2018-02-22T03:05:56.903Z,0
2018-02-22T03:07:02.438Z,0
2018-02-22T03:08:07.949Z,0
2018-02-22T03:09:13.424Z,0
2018-02-22T03:10:19.255Z,0
2018-02-22T03:11:24.439Z,0
2018-02-22T03:12:29.905Z,0
2018-02-22T03:13:35.125Z,0
2018-02-22T03:14:40.610Z,0
2018-02-22T03:15:46.149Z,0
2018-02-22T03:16:51.378Z,0
2018-02-22T03:17:56.569Z,0
2018-02-22T03:19:01.492Z,0
2018-02-22T03:20:06.974Z,0
2018-02-22T03:21:12.454Z,0
2018-02-22T03:22:18.451Z,0
2018-02-22T03:23:23.659Z,0
2018-02-22T03:24:29.412Z,0
2018-02-22T03:25:34.612Z,0
2018-02-22T03:26:40.115Z,0
2018-02-22T03:27:45.652Z,0
2018-02-22T03:28:50.891Z,0
2018-02-22T03:29:55.874Z,0
2018-02-22T03:31:01.607Z,0
2018-02-22T03:32:07.096Z,0
2018-02-22T03:33:12.333Z,0
2018-02-22T03:34:17.760Z,0
2018-02-22T03:35:23.268Z,0
2018-02-22T03:36:29.252Z,0
2018-02-22T03:37:34.160Z,0
2018-02-22T03:38:39.656Z,0
2018-02-22T03:39:45.079Z,0
2018-02-22T03:40:50.612Z,0
2018-02-22T03:41:56.111Z,0
2018-02-22T03:43:01.556Z,0
2018-02-22T03:44:06.758Z,0
2018-02-22T03:45:12.254Z,0
2018-02-22T03:46:18.038Z,0
2018-02-22T03:47:23.221Z,0
2018-02-22T03:48:28.558Z,0
2018-02-22T03:49:33.462Z,0
2018-02-22T03:50:38.950Z,0
2018-02-22T03:51:44.731Z,0
2018-02-22T03:52:50.237Z,0
2018-02-22T03:53:55.443Z,0
2018-02-22T03:55:00.923Z,0
2018-02-22T03:56:06.410Z,0
2018-02-22T03:57:11.698Z,0
2018-02-22T03:58:17.504Z,0
2018-02-22T03:59:22.743Z,0
2018-02-22T04:00:28.825Z,0
2018-02-22T04:01:33.735Z,0
2018-02-22T04:02:39.248Z,0
2018-02-22T04:03:45.005Z,0
2018-02-22T04:04:50.553Z,0
2018-02-22T04:05:55.732Z,0
2018-02-22T04:07:01.478Z,0
2018-02-22T04:08:06.713Z,0
2018-02-22T04:09:12.187Z,0
2018-02-22T04:10:17.924Z,0
2018-02-22T04:11:23.432Z,0
2018-02-22T04:12:29.238Z,0
2018-02-22T04:13:34.713Z,0
2018-02-22T04:14:39.901Z,0
2018-02-22T04:15:45.531Z,0
2018-02-22T04:16:50.729Z,0
2018-02-22T04:17:56.217Z,0
2018-02-22T04:19:01.581Z,0
2018-02-22T04:20:06.214Z,0
2018-02-22T04:21:11.722Z,0
2018-02-22T04:22:17.529Z,0
2018-02-22T04:23:23.001Z,0
2018-02-22T04:24:29.194Z,0
2018-02-22T04:25:34.415Z,0
2018-02-22T04:26:39.893Z,0
2018-02-22T04:27:45.739Z,0
2018-02-22T04:28:51.243Z,0
2018-02-22T04:29:56.708Z,0
2018-02-22T04:31:02.240Z,0
2018-02-22T04:32:07.462Z,0
2018-02-22T04:33:12.937Z,0
2018-02-22T04:34:18.673Z,0
2018-02-22T04:35:23.596Z,0
2018-02-22T04:36:29.031Z,0
2018-02-22T04:37:34.256Z,0
2018-02-22T04:38:39.514Z,0
2018-02-22T04:39:45.118Z,0
2018-02-22T04:40:50.596Z,0
2018-02-22T04:41:56.082Z,0
2018-02-22T04:43:01.829Z,0
2018-02-22T04:44:07.079Z,0
2018-02-22T04:45:12.574Z,0
2018-02-22T04:46:18.414Z,0
2018-02-22T04:47:23.639Z,0
2018-02-22T04:48:29.627Z,0
2018-02-22T04:49:34.822Z,0
2018-02-22T04:50:40.006Z,0
2018-02-22T04:51:45.490Z,0
2018-02-22T04:52:50.990Z,0
2018-02-22T04:53:56.206Z,0
2018-02-22T04:55:02.133Z,0
2018-02-22T04:56:07.033Z,0
2018-02-22T04:57:11.963Z,0
2018-02-22T04:58:17.734Z,0
2018-02-22T04:59:23.212Z,0
2018-02-22T05:00:29.320Z,0
2018-02-22T05:01:34.270Z,0
2018-02-22T05:02:39.771Z,0
2018-02-22T05:03:45.223Z,0
2018-02-22T05:04:50.120Z,0
2018-02-22T05:05:55.622Z,0
2018-02-22T05:07:01.224Z,0
2018-02-22T05:08:06.437Z,0
2018-02-22T05:09:11.694Z,0
2018-02-22T05:10:17.123Z,0
2018-02-22T05:11:22.628Z,0
2018-02-22T05:12:28.120Z,0
2018-02-22T05:13:33.607Z,0
2018-02-22T05:14:39.096Z,0
2018-02-22T05:15:44.342Z,0
2018-02-22T05:16:49.818Z,0
2018-02-22T05:17:55.058Z,0
2018-02-22T05:19:00.615Z,0
2018-02-22T05:20:05.814Z,0
2018-02-22T05:21:11.017Z,0
2018-02-22T05:22:16.453Z,0
2018-02-22T05:23:21.987Z,0
2018-02-22T05:24:27.730Z,0
2018-02-22T05:25:32.968Z,0
2018-02-22T05:26:38.163Z,0
2018-02-22T05:27:43.812Z,0
2018-02-22T05:28:49.273Z,0
2018-02-22T05:29:54.812Z,0
2018-02-22T05:31:00.248Z,0
2018-02-22T05:32:05.731Z,0
2018-02-22T05:33:10.903Z,0
2018-02-22T05:34:17.022Z,0
2018-02-22T05:35:22.379Z,0
2018-02-22T05:36:27.843Z,0
2018-02-22T05:37:33.023Z,0
2018-02-22T05:38:38.242Z,0
2018-02-22T05:39:43.789Z,0
2018-02-22T05:40:48.998Z,0
2018-02-22T05:41:54.492Z,0
2018-02-22T05:42:59.724Z,0
2018-02-22T05:44:05.182Z,0
2018-02-22T05:45:10.369Z,0
2018-02-22T05:46:15.319Z,0
2018-02-22T05:47:20.487Z,0
2018-02-22T05:48:40.920Z,0
2018-02-22T05:49:46.432Z,0
2018-02-22T05:50:51.631Z,0
2018-02-22T05:51:57.375Z,0
2018-02-22T05:53:02.861Z,0
2018-02-22T05:54:08.382Z,0
2018-02-22T05:55:14.163Z,0
2018-02-22T05:56:19.424Z,0
2018-02-22T05:57:25.070Z,0
2018-02-22T05:58:30.294Z,0
2018-02-22T05:59:35.486Z,0
2018-02-22T06:00:40.695Z,0
2018-02-22T06:01:46.178Z,0
2018-02-22T06:02:51.650Z,0
2018-02-22T06:03:57.437Z,0
2018-02-22T06:05:02.628Z,0
2018-02-22T06:06:08.171Z,0
2018-02-22T06:07:13.955Z,0
2018-02-22T06:08:19.458Z,0
2018-02-22T06:09:25.556Z,0
2018-02-22T06:10:31.052Z,0
2018-02-22T06:11:36.563Z,0
2018-02-22T06:12:42.319Z,0
2018-02-22T06:13:47.540Z,0
2018-02-22T06:14:52.550Z,0
2018-02-22T06:15:57.933Z,0
2018-02-22T06:17:02.838Z,0
2018-02-22T06:18:08.354Z,0
2018-02-22T06:19:13.873Z,0
2018-02-22T06:20:19.403Z,0
2018-02-22T06:21:39.489Z,0
2018-02-22T06:22:44.666Z,0
2018-02-22T06:23:49.568Z,0
2018-02-22T06:24:55.320Z,0
2018-02-22T06:26:00.518Z,0
2018-02-22T06:27:05.735Z,0
2018-02-22T06:28:11.463Z,0
2018-02-22T06:29:16.376Z,0
2018-02-22T06:30:21.596Z,0
2018-02-22T06:31:27.425Z,0
2018-02-22T06:32:32.917Z,0
2018-02-22T06:33:38.706Z,0
2018-02-22T06:34:44.229Z,0
2018-02-22T06:35:49.409Z,0
2018-02-22T06:36:55.246Z,6
2018-02-22T06:38:00.426Z,6
2018-02-22T06:39:05.623Z,6
2018-02-22T06:40:11.001Z,6
2018-02-22T06:41:16.188Z,6
2018-02-22T06:42:20.840Z,6
2018-02-22T06:43:41.246Z,6
2018-02-22T06:44:46.756Z,6
2018-02-22T06:45:52.308Z,24
2018-02-22T06:46:57.802Z,24
2018-02-22T06:48:02.742Z,24
2018-02-22T06:49:08.200Z,24
2018-02-22T06:50:13.686Z,24
2018-02-22T06:51:19.152Z,24
2018-02-22T06:52:24.739Z,24
2018-02-22T06:53:30.036Z,24
2018-02-22T06:54:35.839Z,24
2018-02-22T06:55:41.035Z,40
2018-02-22T06:56:46.227Z,40
2018-02-22T06:57:51.707Z,40
2018-02-22T06:58:57.206Z,40
2018-02-22T07:00:02.402Z,40
2018-02-22T07:01:08.181Z,40
2018-02-22T07:02:13.672Z,40
2018-02-22T07:03:19.149Z,40
2018-02-22T07:04:24.694Z,40
2018-02-22T07:05:29.901Z,40
2018-02-22T07:06:35.651Z,55
2018-02-22T07:07:41.152Z,55
2018-02-22T07:08:46.064Z,55
2018-02-22T07:09:51.649Z,55
2018-02-22T07:10:56.867Z,55
2018-02-22T07:12:02.395Z,55
2018-02-22T07:13:08.309Z,55
2018-02-22T07:14:13.795Z,71
2018-02-22T07:15:19.263Z,48
2018-02-22T07:16:24.720Z,48
2018-02-22T07:17:29.925Z,48
2018-02-22T07:18:35.350Z,48
2018-02-22T07:19:40.538Z,48
2018-02-22T07:20:45.478Z,64
2018-02-22T07:21:51.488Z,64
2018-02-22T07:22:56.418Z,64
2018-02-22T07:24:01.307Z,80
2018-02-22T07:25:06.788Z,80
2018-02-22T07:26:12.288Z,55
2018-02-22T07:27:17.776Z,72
2018-02-22T07:28:23.583Z,72
2018-02-22T07:29:28.784Z,88
2018-02-22T07:30:34.261Z,88
2018-02-22T07:31:39.490Z,79
2018-02-22T07:32:44.966Z,79
2018-02-22T07:33:50.422Z,79
2018-02-22T07:34:55.913Z,95
2018-02-22T07:36:01.102Z,95
2018-02-22T07:37:06.658Z,95
2018-02-22T07:38:12.193Z,95
2018-02-22T07:39:17.400Z,95
2018-02-22T07:40:23.140Z,95
2018-02-22T07:41:28.346Z,112
2018-02-22T07:42:33.776Z,112
2018-02-22T07:43:39.277Z,112
2018-02-22T07:44:44.763Z,112
2018-02-22T07:45:50.550Z,112
2018-02-22T07:46:56.028Z,112
2018-02-22T07:48:01.236Z,112
2018-02-22T07:49:06.887Z,112
2018-02-22T07:50:12.351Z,112
2018-02-22T07:51:17.813Z,112
2018-02-22T07:52:23.540Z,103
2018-02-22T07:53:28.743Z,103
2018-02-22T07:54:34.004Z,119
2018-02-22T07:55:39.496Z,119
2018-02-22T07:56:44.983Z,136
2018-02-22T07:57:50.434Z,127
2018-02-22T07:58:55.949Z,143
2018-02-22T08:00:01.186Z,117
2018-02-22T08:01:06.719Z,134
2018-02-22T08:02:12.204Z,134
2018-02-22T08:03:17.129Z,134
2018-02-22T08:04:22.956Z,143
2018-02-22T08:05:28.131Z,143
2018-02-22T08:06:33.962Z,150
2018-02-22T08:07:39.169Z,158
2018-02-22T08:08:44.555Z,154
2018-02-22T08:09:50.216Z,172
2018-02-22T08:10:55.678Z,154
2018-02-22T08:12:00.296Z,147
2018-02-22T08:13:04.942Z,158
2018-02-22T08:14:10.160Z,167
2018-02-22T08:15:15.728Z,150
2018-02-22T08:16:21.014Z,150
2018-02-22T08:17:26.529Z,150
2018-02-22T08:18:32.050Z,134
2018-02-22T08:19:37.540Z,150
2018-02-22T08:20:43.017Z,150
2018-02-22T08:21:48.605Z,150
2018-02-22T08:22:53.797Z,150
2018-02-22T08:23:59.283Z,150
2018-02-22T08:25:05.067Z,150
2018-02-22T08:26:10.486Z,150
2018-02-22T08:27:15.988Z,150
2018-02-22T08:28:21.732Z,159
2018-02-22T08:29:26.345Z,150
2018-02-22T08:30:32.089Z,150
2018-02-22T08:31:37.609Z,150
2018-02-22T08:32:43.092Z,167
2018-02-22T08:33:48.018Z,167
2018-02-22T08:34:53.549Z,167
2018-02-22T08:35:59.041Z,167
2018-02-22T08:37:04.666Z,167
2018-02-22T08:38:10.244Z,167
2018-02-22T08:39:15.520Z,167
2018-02-22T08:40:20.890Z,167
2018-02-22T08:41:26.293Z,167
2018-02-22T08:42:32.239Z,167
2018-02-22T08:43:37.483Z,167
2018-02-22T08:44:43.033Z,167
2018-02-22T08:45:49.228Z,167
2018-02-22T08:46:54.422Z,167
2018-02-22T08:47:59.809Z,167
2018-02-22T08:49:04.963Z,167
2018-02-22T08:50:10.462Z,167
2018-02-22T08:51:15.956Z,167
2018-02-22T08:52:21.870Z,167
2018-02-22T08:53:27.076Z,167
2018-02-22T08:54:32.811Z,167
2018-02-22T08:55:37.994Z,167
2018-02-22T08:56:42.924Z,167
2018-02-22T08:57:48.364Z,167
2018-02-22T08:58:53.564Z,183
2018-02-22T08:59:59.038Z,183
2018-02-22T09:01:04.799Z,183
2018-02-22T09:02:10.465Z,183
2018-02-22T09:03:15.649Z,183
2018-02-22T09:04:21.139Z,183
2018-02-22T09:05:26.350Z,183
2018-02-22T09:06:31.992Z,183
2018-02-22T09:07:37.450Z,183
2018-02-22T09:08:42.376Z,183
2018-02-22T09:09:48.272Z,183
2018-02-22T09:10:53.726Z,183
2018-02-22T09:11:58.619Z,200
2018-02-22T09:13:04.063Z,200
2018-02-22T09:14:09.259Z,200
2018-02-22T09:15:14.435Z,200
2018-02-22T09:16:20.016Z,200
2018-02-22T09:17:25.493Z,200
2018-02-22T09:18:31.525Z,200
2018-02-22T09:19:36.753Z,200
2018-02-22T09:20:42.239Z,200
2018-02-22T09:21:47.759Z,200
2018-02-22T09:22:53.341Z,200
2018-02-22T09:23:58.529Z,200
2018-02-22T09:25:04.522Z,200
2018-02-22T09:26:09.729Z,200
2018-02-22T09:27:14.656Z,200
2018-02-22T09:28:20.384Z,200
2018-02-22T09:29:25.285Z,200
2018-02-22T09:30:30.752Z,200
2018-02-22T09:31:35.685Z,200
2018-02-22T09:32:40.584Z,200
2018-02-22T09:33:46.374Z,200
2018-02-22T09:34:51.849Z,191
2018-02-22T09:35:57.322Z,191
2018-02-22T09:37:02.962Z,200
2018-02-22T09:38:08.163Z,191
2018-02-22T09:39:13.359Z,200
2018-02-22T09:40:19.092Z,191
2018-02-22T09:41:24.588Z,216
2018-02-22T09:42:29.835Z,216
2018-02-22T09:43:34.502Z,191
2018-02-22T09:44:39.990Z,191
2018-02-22T09:45:45.702Z,191
2018-02-22T09:46:51.262Z,207
2018-02-22T09:47:56.782Z,207
2018-02-22T09:49:02.230Z,191
2018-02-22T09:50:07.729Z,191
2018-02-22T09:51:12.625Z,207
2018-02-22T09:52:18.399Z,207
2018-02-22T09:53:23.623Z,207
2018-02-22T09:54:29.536Z,207
2018-02-22T09:55:34.362Z,191
2018-02-22T09:56:39.833Z,224
2018-02-22T09:57:45.334Z,198
2018-02-22T09:58:50.522Z,215
2018-02-22T09:59:55.999Z,215
2018-02-22T10:01:01.732Z,240
2018-02-22T10:02:07.222Z,240
2018-02-22T10:03:12.415Z,215
2018-02-22T10:04:18.734Z,215
2018-02-22T10:05:24.198Z,215
2018-02-22T10:06:29.769Z,215
2018-02-22T10:07:35.230Z,215
2018-02-22T10:08:40.723Z,240
2018-02-22T10:09:46.569Z,224
2018-02-22T10:10:52.097Z,224
2018-02-22T10:11:57.326Z,224
2018-02-22T10:13:02.809Z,224
2018-02-22T10:14:08.001Z,224
2018-02-22T10:15:13.216Z,224
2018-02-22T10:16:18.893Z,224
2018-02-22T10:17:24.082Z,224
2018-02-22T10:18:29.538Z,224
2018-02-22T10:19:34.947Z,224
2018-02-22T10:20:40.068Z,224
2018-02-22T10:21:45.810Z,224
2018-02-22T10:22:50.740Z,224
2018-02-22T10:23:56.232Z,224
2018-02-22T10:25:01.972Z,224
2018-02-22T10:26:07.157Z,207
2018-02-22T10:27:12.665Z,224
2018-02-22T10:28:18.592Z,224
2018-02-22T10:29:23.785Z,224
2018-02-22T10:30:29.495Z,207
2018-02-22T10:31:34.714Z,224
2018-02-22T10:32:39.618Z,224
2018-02-22T10:33:44.777Z,224
2018-02-22T10:34:50.271Z,207
2018-02-22T10:35:54.659Z,207
2018-02-22T10:37:00.397Z,207
2018-02-22T10:38:05.611Z,207
2018-02-22T10:39:10.824Z,207
2018-02-22T10:40:16.478Z,207
2018-02-22T10:41:21.978Z,207
2018-02-22T10:42:28.324Z,207
2018-02-22T10:43:33.825Z,207
2018-02-22T10:44:39.502Z,207
2018-02-22T10:45:45.016Z,191
2018-02-22T10:46:50.692Z,207
2018-02-22T10:47:55.897Z,207
2018-02-22T10:49:01.473Z,207
2018-02-22T10:50:06.760Z,191
2018-02-22T10:51:12.353Z,207
2018-02-22T10:52:18.072Z,191
2018-02-22T10:53:23.527Z,216
2018-02-22T10:54:29.357Z,216
2018-02-22T10:55:34.017Z,207
2018-02-22T10:56:38.921Z,191
2018-02-22T10:57:44.067Z,191
2018-02-22T10:58:49.459Z,216
2018-02-22T10:59:54.997Z,191
2018-02-22T11:01:00.451Z,191
2018-02-22T11:02:05.910Z,207
2018-02-22T11:03:11.576Z,191
2018-02-22T11:04:17.017Z,207
2018-02-22T11:05:22.246Z,191
2018-02-22T11:06:27.809Z,191
2018-02-22T11:07:33.300Z,191
2018-02-22T11:08:38.798Z,191
2018-02-22T11:09:44.087Z,191
2018-02-22T11:10:49.009Z,207
2018-02-22T11:11:54.186Z,191
2018-02-22T11:12:59.781Z,191
2018-02-22T11:14:04.991Z,207
2018-02-22T11:15:10.189Z,207
2018-02-22T11:16:15.464Z,136
2018-02-22T11:17:20.657Z,191
2018-02-22T11:18:41.040Z,207
2018-02-22T11:19:46.583Z,191
2018-02-22T11:20:52.143Z,207
2018-02-22T11:21:57.669Z,207
2018-02-22T11:23:02.565Z,207
2018-02-22T11:24:07.777Z,191
2018-02-22T11:25:13.627Z,207
2018-02-22T11:26:19.090Z,207
2018-02-22T11:28:44.645Z,207
2018-02-22T11:29:49.853Z,112
2018-02-22T11:30:55.615Z,191
2018-02-22T11:32:00.821Z,207
2018-02-22T11:33:05.739Z,207
2018-02-22T11:34:11.283Z,207
2018-02-22T11:35:16.492Z,224
2018-02-22T11:36:21.682Z,240
2018-02-22T11:37:27.806Z,224
2018-02-22T11:38:33.004Z,224
2018-02-22T11:39:38.870Z,215
2018-02-22T11:40:44.067Z,207
2018-02-22T11:41:49.538Z,207
2018-02-22T11:42:54.991Z,128
2018-02-22T11:44:00.553Z,224
2018-02-22T11:45:05.460Z,224
2018-02-22T11:46:11.290Z,176
2018-02-22T11:47:16.513Z,207
2018-02-22T11:48:21.705Z,224
2018-02-22T11:49:27.503Z,224
2018-02-22T11:50:32.701Z,224
2018-02-22T11:51:38.410Z,216
2018-02-22T11:52:43.909Z,191
2018-02-22T11:53:49.081Z,191
2018-02-22T11:54:54.532Z,216
2018-02-22T11:55:59.736Z,207
2018-02-22T11:57:04.648Z,207
2018-02-22T11:58:10.152Z,207
2018-02-22T11:59:15.359Z,224
2018-02-22T12:00:20.870Z,224
2018-02-22T12:01:41.033Z,224
2018-02-22T12:02:46.212Z,224
2018-02-22T12:03:52.330Z,161
2018-02-22T12:04:57.844Z,169
2018-02-22T12:06:03.327Z,161
2018-02-22T12:07:09.166Z,207
2018-02-22T12:08:14.640Z,161
2018-02-22T12:09:19.850Z,191
2018-02-22T12:10:25.697Z,183
2018-02-22T12:11:30.908Z,192
2018-02-22T12:12:36.331Z,207
2018-02-22T12:13:41.816Z,185
2018-02-22T12:14:47.323Z,224
2018-02-22T12:15:53.410Z,183
2018-02-22T12:16:58.803Z,128
2018-02-22T12:18:04.421Z,128
2018-02-22T12:19:10.193Z,200
2018-02-22T12:20:15.681Z,152
2018-02-22T12:21:20.780Z,192
2018-02-22T12:22:41.168Z,200
2018-02-22T12:23:46.678Z,159
2018-02-22T12:24:52.265Z,183
2018-02-22T12:25:57.740Z,224
2018-02-22T12:27:02.654Z,207
2018-02-22T12:28:07.822Z,224
2018-02-22T12:29:13.353Z,224
2018-02-22T12:30:18.993Z,224
2018-02-22T12:31:24.181Z,224
2018-02-22T12:32:29.383Z,224
2018-02-22T12:33:34.852Z,215
2018-02-22T12:34:40.361Z,231
2018-02-22T12:35:45.553Z,247
2018-02-22T12:36:51.277Z,238
2018-02-22T12:37:56.739Z,192
2018-02-22T12:39:01.913Z,247
2018-02-22T12:40:07.365Z,192
2018-02-22T12:41:12.853Z,231
2018-02-22T12:42:18.556Z,200
2018-02-22T12:43:24.317Z,247
2018-02-22T12:44:29.788Z,240
2018-02-22T12:45:35.893Z,222
2018-02-22T12:46:41.121Z,222
2018-02-22T12:47:46.600Z,247
2018-02-22T12:48:52.356Z,231
2018-02-22T12:49:57.881Z,159
2018-02-22T12:51:03.293Z,215
2018-02-22T12:52:08.170Z,183
2018-02-22T12:53:13.668Z,169
2018-02-22T12:54:19.123Z,198
2018-02-22T12:55:24.737Z,192
2018-02-22T12:56:29.948Z,200
2018-02-22T12:57:35.422Z,207
2018-02-22T12:58:40.317Z,176
2018-02-22T12:59:45.858Z,240
2018-02-22T13:00:51.603Z,207
2018-02-22T13:01:57.000Z,209
2018-02-22T13:03:02.498Z,231
2018-02-22T13:04:07.987Z,231
2018-02-22T13:05:12.617Z,231
2018-02-22T13:06:18.115Z,240
2018-02-22T13:07:23.887Z,224
2018-02-22T13:08:28.826Z,152
2018-02-22T13:09:34.617Z,207
2018-02-22T13:10:39.523Z,207
2018-02-22T13:11:44.982Z,161
2018-02-22T13:12:50.818Z,216
2018-02-22T13:13:56.315Z,216
2018-02-22T13:15:01.829Z,152
2018-02-22T13:16:07.668Z,185
2018-02-22T13:17:13.154Z,200
2018-02-22T13:18:18.651Z,216
2018-02-22T13:19:24.483Z,216
2018-02-22T13:20:29.142Z,207
2018-02-22T13:21:34.591Z,207
2018-02-22T13:22:39.819Z,207
2018-02-22T13:23:45.029Z,176
2018-02-22T13:24:50.968Z,176
2018-02-22T13:25:56.214Z,207
2018-02-22T13:27:01.660Z,192
2018-02-22T13:28:07.573Z,233
2018-02-22T13:29:12.762Z,216
2018-02-22T13:30:18.245Z,216
2018-02-22T13:31:24.149Z,216
2018-02-22T13:32:29.049Z,192
2018-02-22T13:33:34.242Z,161
2018-02-22T13:34:39.439Z,216
2018-02-22T13:35:44.637Z,216
2018-02-22T13:36:49.928Z,216
2018-02-22T13:37:55.014Z,233
2018-02-22T13:39:00.260Z,233
2018-02-22T13:40:05.808Z,216
2018-02-22T13:41:10.999Z,185
2018-02-22T13:42:16.503Z,233
2018-02-22T13:43:21.975Z,233
2018-02-22T13:44:26.887Z,185
2018-02-22T13:45:32.824Z,169
2018-02-22T13:46:38.306Z,176
2018-02-22T13:47:43.522Z,192
2018-02-22T13:48:48.963Z,216
2018-02-22T13:49:54.135Z,233
2018-02-22T13:50:58.756Z,216
2018-02-22T13:52:03.645Z,176
2018-02-22T13:53:08.856Z,161
2018-02-22T13:54:14.325Z,176
2018-02-22T13:55:19.869Z,161
2018-02-22T13:56:25.273Z,200
2018-02-22T13:57:31.074Z,169
2018-02-22T13:58:36.008Z,216
2018-02-22T13:59:40.620Z,200
2018-02-22T14:00:45.766Z,185
2018-02-22T14:01:51.256Z,192
2018-02-22T14:02:55.877Z,224
2018-02-22T14:04:01.612Z,224
2018-02-22T14:05:06.706Z,240
2018-02-22T14:06:12.224Z,240
2018-02-22T14:07:17.702Z,225
2018-02-22T14:08:22.904Z,216
2018-02-22T14:09:28.870Z,233
2018-02-22T14:10:34.352Z,233
2018-02-22T14:11:39.845Z,233
2018-02-22T14:12:45.148Z,233
2018-02-22T14:13:50.958Z,233
2018-02-22T14:14:55.911Z,233
2018-02-22T14:16:01.646Z,233
2018-02-22T14:17:07.130Z,216
2018-02-22T14:18:12.348Z,233
2018-02-22T14:19:17.657Z,224
2018-02-22T14:20:22.883Z,224
2018-02-22T14:21:28.396Z,224
2018-02-22T14:22:33.878Z,224
2018-02-22T14:23:39.371Z,240
2018-02-22T14:24:44.850Z,240
2018-02-22T14:25:49.758Z,240
2018-02-22T14:26:55.238Z,240
2018-02-22T14:28:00.608Z,240
2018-02-22T14:29:05.545Z,224
2018-02-22T14:30:11.022Z,224
2018-02-22T14:31:16.520Z,240
2018-02-22T14:32:21.733Z,257
2018-02-22T14:33:27.318Z,247
2018-02-22T14:34:32.534Z,247
2018-02-22T14:35:38.250Z,247
2018-02-22T14:36:44.006Z,257
2018-02-22T14:37:49.466Z,240
2018-02-22T14:38:55.038Z,240
2018-02-22T14:40:01.051Z,224
2018-02-22T14:41:06.264Z,240
2018-02-22T14:42:11.660Z,240
2018-02-22T14:43:17.144Z,240
2018-02-22T14:44:22.785Z,240
2018-02-22T14:45:28.158Z,240
2018-02-22T14:46:33.691Z,257
2018-02-22T14:47:38.322Z,257
2018-02-22T14:48:44.066Z,257
2018-02-22T14:49:49.602Z,257
2018-02-22T14:50:55.275Z,257
2018-02-22T14:52:00.729Z,257
2018-02-22T14:53:05.636Z,257
2018-02-22T14:54:10.826Z,240
2018-02-22T14:55:16.585Z,240
2018-02-22T14:56:22.157Z,257
2018-02-22T14:57:28.068Z,240
2018-02-22T14:58:33.562Z,240
2018-02-22T14:59:39.035Z,240
2018-02-22T15:00:44.248Z,224
2018-02-22T15:01:49.722Z,224
2018-02-22T15:02:55.126Z,224
2018-02-22T15:04:00.596Z,224
2018-02-22T15:05:05.779Z,224
2018-02-22T15:06:10.980Z,224
2018-02-22T15:07:16.455Z,224
2018-02-22T15:08:21.802Z,224
2018-02-22T15:09:27.577Z,224
2018-02-22T15:10:32.958Z,224
2018-02-22T15:11:37.900Z,224
2018-02-22T15:12:43.618Z,224
2018-02-22T15:13:49.075Z,224
2018-02-22T15:14:54.543Z,224
2018-02-22T15:15:59.691Z,224
2018-02-22T15:17:04.307Z,224
2018-02-22T15:18:09.777Z,224
2018-02-22T15:19:15.044Z,224
2018-02-22T15:20:20.357Z,224
2018-02-22T15:21:40.825Z,224
2018-02-22T15:22:46.334Z,224
2018-02-22T15:23:51.117Z,224
2018-02-22T15:24:56.923Z,224
2018-02-22T15:26:02.416Z,224
2018-02-22T15:27:07.893Z,224
2018-02-22T15:28:13.686Z,224
2018-02-22T15:29:19.144Z,207
2018-02-22T15:30:39.746Z,207
2018-02-22T15:31:44.387Z,207
2018-02-22T15:32:49.324Z,207
2018-02-22T15:33:55.332Z,191